Time;durP1;ratioP1;P1;durP2;ratioP2;P2;SDS_P1;SDS_P2;PMS_P1;PMS_P2;Temp;Humidity;BMP_temperature;BMP_pressure;BME280_temperature;BME280_humidity;BME280_pressure;Samples;Min_cycle;Max_cycle;Signal;HPM_P1;HPM_P2
2023/06/15 00:00:50;;;;;;;;;;;;;;;20.15;55.46;97843.53;5143686;27;19923;-77
2023/06/15 00:03:17;;;;;;;;;;;;;;;20.44;55.54;97843.59;5141958;27;19935;-76
2023/06/15 00:05:43;;;;;;;;;;;;;;;20.81;54.61;97839.19;5142417;27;19991;-76
2023/06/15 00:08:10;;;;;;;;;;;;;;;20.75;54.41;97845.94;5145464;27;19924;-76
2023/06/15 00:10:36;;;;;;;;;;;;;;;20.57;54.51;97847.19;5144988;27;19944;-76
2023/06/15 00:13:04;;;;;;;;;;;;;;;20.91;54.01;97849.66;5115106;28;19927;-76
2023/06/15 00:15:30;;;;;;;;;;;;;;;20.53;54.65;97844.34;5141685;27;19930;-77
2023/06/15 00:17:57;;;;;;;;;;;;;;;20.61;54.72;97843.47;5144283;27;19927;-76
2023/06/15 00:20:28;;;;;;;;;;;;;;;20.62;54.61;97849.69;5144953;27;19941;-76
2023/06/15 00:22:55;;;;;;;;;;;;;;;21.24;53.51;97845.09;5142609;27;19994;-76
2023/06/15 00:25:22;;;;;;;;;;;;;;;21.27;53.30;97851.78;5141331;27;19924;-76
2023/06/15 00:27:48;;;;;;;;;;;;;;;21.28;53.05;97847.94;5142587;27;19945;-76
2023/06/15 00:30:16;;;;;;;;;;;;;;;20.87;54.08;97851.44;5144797;27;19988;-77
2023/06/15 00:32:42;;;;;;;;;;;;;;;20.96;53.95;97844.03;5143844;27;19939;-75
2023/06/15 00:35:09;;;;;;;;;;;;;;;20.85;54.15;97851.78;5141676;27;19919;-76
2023/06/15 00:37:35;;;;;;;;;;;;;;;20.94;54.46;97846.28;5141218;27;19934;-76
2023/06/15 00:40:05;;;;;;;;;;;;;;;20.82;54.47;97843.50;5144501;27;19967;-75
2023/06/15 00:42:32;;;;;;;;;;;;;;;20.69;54.77;97847.25;5144492;27;20006;-76
2023/06/15 00:44:58;;;;;;;;;;;;;;;20.28;55.55;97840.66;5123302;27;19927;-76
2023/06/15 00:47:26;;;;;;;;;;;;;;;20.38;55.71;97848.41;5140314;27;19919;-76
2023/06/15 00:49:52;;;;;;;;;;;;;;;20.42;55.49;97837.72;5142857;27;20003;-76
2023/06/15 00:52:19;;;;;;;;;;;;;;;20.65;55.04;97849.03;5144819;27;20008;-75
2023/06/15 00:54:46;;;;;;;;;;;;;;;21.31;53.85;97841.84;5144089;27;19959;-76
2023/06/15 00:57:14;;;;;;;;;;;;;;;21.53;53.29;97847.69;5141150;27;19928;-76
2023/06/15 00:59:41;;;;;;;;;;;;;;;21.70;52.92;97851.34;5140994;27;19924;-76
2023/06/15 01:02:12;;;;;;;;;;;;;;;21.81;52.81;97849.78;5143956;27;19962;-76
2023/06/15 01:04:40;;;;;;;;;;;;;;;21.80;52.69;97853.63;5144116;27;19924;-76
2023/06/15 01:07:10;;;;;;;;;;;;;;;21.80;52.78;97848.19;5140840;27;19962;-76
2023/06/15 01:09:38;;;;;;;;;;;;;;;21.83;52.64;97842.88;5140611;27;19987;-76
2023/06/15 01:12:07;;;;;;;;;;;;;;;21.84;52.73;97847.19;5132397;27;19924;-77
2023/06/15 01:14:34;;;;;;;;;;;;;;;21.91;52.70;97842.00;5140395;27;19955;-76
2023/06/15 01:17:05;;;;;;;;;;;;;;;21.90;52.85;97850.53;5143904;27;19959;-76
2023/06/15 01:19:53;;;;;;;;;;;;;;;21.88;52.61;97850.84;5144375;27;19920;-76
2023/06/15 01:22:24;;;;;;;;;;;;;;;21.90;52.61;97847.78;5134143;28;19931;-76
2023/06/15 01:24:58;;;;;;;;;;;;;;;21.86;52.88;97849.56;5142399;27;19963;-76
2023/06/15 01:27:27;;;;;;;;;;;;;;;21.86;52.79;97842.22;5146686;28;19919;-76
2023/06/15 01:29:54;;;;;;;;;;;;;;;21.82;52.79;97845.91;5144187;28;19982;-77
2023/06/15 01:32:21;;;;;;;;;;;;;;;21.81;52.80;97839.72;5140710;28;20102;-76
2023/06/15 01:34:47;;;;;;;;;;;;;;;21.82;53.04;97835.06;5141959;28;19924;-76
2023/06/15 01:37:13;;;;;;;;;;;;;;;21.90;52.84;97839.63;5144069;28;19926;-76
2023/06/15 01:39:42;;;;;;;;;;;;;;;21.85;52.79;97834.41;5143717;28;19924;-76
2023/06/15 01:42:09;;;;;;;;;;;;;;;21.80;53.03;97840.03;5140815;28;19919;-76
2023/06/15 01:44:37;;;;;;;;;;;;;;;21.71;53.20;97832.00;5140592;28;19920;-76
2023/06/15 01:47:03;;;;;;;;;;;;;;;21.51;53.52;97833.63;5132197;28;19928;-76
2023/06/15 01:49:29;;;;;;;;;;;;;;;21.44;53.57;97829.91;5121927;28;19931;-75
2023/06/15 01:51:56;;;;;;;;;;;;;;;21.21;54.28;97834.91;5143116;28;19928;-76
2023/06/15 01:54:22;;;;;;;;;;;;;;;20.97;54.85;97826.63;5144166;28;19930;-76
2023/06/15 01:56:49;;;;;;;;;;;;;;;20.88;55.05;97834.03;5141840;28;20386;-76
2023/06/15 01:59:15;;;;;;;;;;;;;;;20.66;55.77;97826.22;5144280;27;19927;-76
2023/06/15 02:01:43;;;;;;;;;;;;;;;20.37;56.51;97827.84;5145661;27;19924;-76
2023/06/15 02:04:09;;;;;;;;;;;;;;;20.64;56.11;97831.97;5149260;27;19934;-76
2023/06/15 02:06:36;;;;;;;;;;;;;;;20.46;57.13;97823.16;5148961;27;19954;-76
2023/06/15 02:09:03;;;;;;;;;;;;;;;20.22;57.72;97833.78;5135789;27;19954;-76
2023/06/15 02:11:30;;;;;;;;;;;;;;;20.07;58.23;97838.97;5143994;27;19927;-76
2023/06/15 02:13:59;;;;;;;;;;;;;;;19.97;59.33;97829.28;5146691;27;19924;-75
2023/06/15 02:16:26;;;;;;;;;;;;;;;20.00;59.01;97831.34;5147604;27;19923;-75
2023/06/15 02:18:54;;;;;;;;;;;;;;;19.91;59.63;97833.28;5145416;27;19951;-76
2023/06/15 02:21:21;;;;;;;;;;;;;;;20.27;58.82;97830.16;5125144;28;19924;-76
2023/06/15 02:23:48;;;;;;;;;;;;;;;19.89;59.71;97833.63;5145440;27;20379;-76
2023/06/15 02:26:14;;;;;;;;;;;;;;;19.68;61.14;97826.53;5147883;27;19923;-76
2023/06/15 02:28:41;;;;;;;;;;;;;;;20.06;59.87;97838.16;5146959;27;19945;-76
2023/06/15 02:31:07;;;;;;;;;;;;;;;20.36;59.01;97826.22;5143586;27;19927;-76
2023/06/15 02:33:34;;;;;;;;;;;;;;;20.53;58.68;97835.41;5143285;27;19931;-77
2023/06/15 02:36:01;;;;;;;;;;;;;;;20.38;58.61;97829.44;5146664;27;19945;-76
2023/06/15 02:38:28;;;;;;;;;;;;;;;20.80;57.61;97826.75;5146900;27;19923;-77
2023/06/15 02:40:54;;;;;;;;;;;;;;;20.96;56.92;97830.44;5144691;27;19966;-76
2023/06/15 02:43:21;;;;;;;;;;;;;;;21.15;56.31;97838.94;5143452;27;19932;-75
2023/06/15 02:45:47;;;;;;;;;;;;;;;21.25;56.27;97841.25;5147007;27;19924;-75
2023/06/15 02:48:14;;;;;;;;;;;;;;;21.25;56.13;97832.31;5150237;27;19995;-77
2023/06/15 02:50:40;;;;;;;;;;;;;;;21.28;55.90;97832.44;5153440;27;19908;-76
2023/06/15 02:53:08;;;;;;;;;;;;;;;21.22;56.09;97833.78;5150162;27;19930;-77
2023/06/15 02:55:37;;;;;;;;;;;;;;;21.20;56.06;97840.69;5150564;27;19937;-76
2023/06/15 02:58:03;;;;;;;;;;;;;;;21.28;55.93;97840.59;5141803;27;19971;-75
2023/06/15 03:00:30;;;;;;;;;;;;;;;21.12;56.25;97839.63;5148648;27;19947;-75
2023/06/15 03:02:57;;;;;;;;;;;;;;;20.90;56.96;97838.00;5151803;27;19970;-75
2023/06/15 03:05:24;;;;;;;;;;;;;;;20.72;57.46;97841.97;5152444;27;19930;-75
2023/06/15 03:07:52;;;;;;;;;;;;;;;20.46;58.15;97850.28;5149839;27;19929;-75
2023/06/15 03:10:20;;;;;;;;;;;;;;;20.66;58.24;97858.78;5143326;27;19931;-75
2023/06/15 03:12:47;;;;;;;;;;;;;;;20.66;58.08;97846.00;5144889;27;19958;-76
2023/06/15 03:15:13;;;;;;;;;;;;;;;20.67;58.34;97849.53;5146705;27;19934;-75
2023/06/15 03:17:40;;;;;;;;;;;;;;;20.79;57.88;97847.69;5146011;27;19923;-76
2023/06/15 03:20:11;;;;;;;;;;;;;;;20.66;58.20;97853.34;5146252;27;19983;-76
2023/06/15 03:22:37;;;;;;;;;;;;;;;20.84;57.96;97854.81;5146228;27;19945;-77
2023/06/15 03:25:04;;;;;;;;;;;;;;;20.91;57.69;97852.38;5134172;27;19927;-76
2023/06/15 03:27:32;;;;;;;;;;;;;;;20.96;57.50;97857.59;5142647;27;20338;-76
2023/06/15 03:30:01;;;;;;;;;;;;;;;20.98;57.25;97864.28;5127250;27;19935;-75
2023/06/15 03:32:29;;;;;;;;;;;;;;;20.98;57.14;97866.22;5145933;27;19920;-76
2023/06/15 03:34:57;;;;;;;;;;;;;;;21.06;56.88;97868.06;5143590;27;19919;-76
2023/06/15 03:37:23;;;;;;;;;;;;;;;20.80;57.59;97876.41;5142375;27;19994;-76
2023/06/15 03:39:49;;;;;;;;;;;;;;;20.32;59.00;97874.13;5143729;27;19958;-76
2023/06/15 03:42:16;;;;;;;;;;;;;;;20.34;59.62;97871.88;5145762;27;20419;-76
2023/06/15 03:44:44;;;;;;;;;;;;;;;20.04;60.45;97870.25;5126597;27;19947;-76
2023/06/15 03:47:10;;;;;;;;;;;;;;;19.37;63.94;97883.63;5141956;27;19995;-75
2023/06/15 03:49:36;;;;;;;;;;;;;;;19.48;64.27;97881.38;5143173;27;19911;-75
2023/06/15 03:52:03;;;;;;;;;;;;;;;19.16;66.91;97879.94;5145684;27;19931;-75
2023/06/15 03:54:29;;;;;;;;;;;;;;;18.99;68.71;97880.75;5146191;27;19923;-75
2023/06/15 03:56:55;;;;;;;;;;;;;;;18.80;70.96;97888.38;5143106;27;19973;-75
2023/06/15 03:59:23;;;;;;;;;;;;;;;19.67;65.67;97881.84;5142382;27;19966;-74
2023/06/15 04:01:51;;;;;;;;;;;;;;;20.19;63.42;97887.88;5144404;27;19923;-74
2023/06/15 04:04:17;;;;;;;;;;;;;;;20.21;63.18;97889.13;5148885;27;19924;-74
2023/06/15 04:06:46;;;;;;;;;;;;;;;20.22;63.07;97888.03;5147500;27;19927;-74
2023/06/15 04:09:12;;;;;;;;;;;;;;;19.89;64.06;97892.47;5142657;27;19923;-75
2023/06/15 04:11:38;;;;;;;;;;;;;;;19.63;66.20;97891.72;5141915;27;19923;-75
2023/06/15 04:14:05;;;;;;;;;;;;;;;19.51;66.47;97897.00;5145102;27;19963;-76
2023/06/15 04:16:31;;;;;;;;;;;;;;;18.59;74.32;97906.31;5146562;27;19955;-75
2023/06/15 04:18:59;;;;;;;;;;;;;;;18.80;75.88;97901.91;5144654;27;19923;-76
2023/06/15 04:21:25;;;;;;;;;;;;;;;18.45;79.57;97911.00;5140933;27;19935;-76
2023/06/15 04:23:52;;;;;;;;;;;;;;;18.79;77.16;97905.72;5143233;27;19928;-76
2023/06/15 04:26:19;;;;;;;;;;;;;;;18.67;79.34;97922.56;5144486;27;19944;-76
2023/06/15 04:28:49;;;;;;;;;;;;;;;19.01;77.57;97916.41;5143428;27;19933;-76
2023/06/15 04:31:17;;;;;;;;;;;;;;;18.96;77.48;97910.34;5140971;27;20062;-76
2023/06/15 04:33:44;;;;;;;;;;;;;;;18.95;79.36;97920.38;5141769;27;20010;-76
2023/06/15 04:36:13;;;;;;;;;;;;;;;19.04;76.35;97923.91;5144391;27;19962;-76
2023/06/15 04:38:40;;;;;;;;;;;;;;;19.56;72.93;97919.28;5144095;27;19924;-75
2023/06/15 04:41:07;;;;;;;;;;;;;;;19.49;73.81;97926.31;5140806;27;19924;-76
2023/06/15 04:43:34;;;;;;;;;;;;;;;18.84;77.64;97932.63;5140833;27;20510;-77
2023/06/15 04:46:00;;;;;;;;;;;;;;;18.65;79.71;97937.53;5144092;27;19982;-77
2023/06/15 04:48:27;;;;;;;;;;;;;;;18.84;79.29;97935.34;5144803;27;19923;-76
2023/06/15 04:50:56;;;;;;;;;;;;;;;19.00;77.59;97933.75;5142140;27;19945;-76
2023/06/15 04:53:23;;;;;;;;;;;;;;;18.11;83.31;97933.28;5140718;27;19920;-76
2023/06/15 04:55:50;;;;;;;;;;;;;;;18.27;83.91;97938.00;5142653;27;19967;-76
2023/06/15 04:58:17;;;;;;;;;;;;;;;18.94;78.24;97931.53;5144193;27;19923;-76
2023/06/15 05:00:43;;;;;;;;;;;;;;;19.63;73.90;97935.88;5143369;27;19931;-76
2023/06/15 05:03:11;;;;;;;;;;;;;;;19.56;73.03;97940.97;5140464;27;19975;-75
2023/06/15 05:05:37;;;;;;;;;;;;;;;20.16;69.68;97940.84;5140408;27;19954;-76
2023/06/15 05:08:04;;;;;;;;;;;;;;;20.14;69.56;97936.88;5131959;27;19924;-76
2023/06/15 05:10:32;;;;;;;;;;;;;;;20.15;69.25;97936.53;5140252;27;20009;-76
2023/06/15 05:12:59;;;;;;;;;;;;;;;20.28;68.38;97937.47;5142863;27;19975;-76
2023/06/15 05:15:25;;;;;;;;;;;;;;;20.28;67.88;97940.19;5143812;27;20452;-77
2023/06/15 05:17:51;;;;;;;;;;;;;;;20.30;67.64;97941.44;5141793;27;19966;-76
2023/06/15 05:20:18;;;;;;;;;;;;;;;20.30;67.54;97937.97;5145365;27;19983;-76
2023/06/15 05:22:44;;;;;;;;;;;;;;;20.11;68.20;97941.03;5142582;27;19924;-75
2023/06/15 05:25:10;;;;;;;;;;;;;;;20.04;68.87;97940.72;5139916;27;19945;-76
2023/06/15 05:27:38;;;;;;;;;;;;;;;20.21;68.46;97942.59;5139855;27;19959;-75
2023/06/15 05:30:07;;;;;;;;;;;;;;;20.26;68.15;97948.66;5132034;28;19951;-75
2023/06/15 05:32:37;;;;;;;;;;;;;;;20.05;69.38;97949.66;5139770;28;19930;-76
2023/06/15 05:35:04;;;;;;;;;;;;;;;20.11;69.00;97945.66;5131335;28;19924;-75
2023/06/15 05:37:31;;;;;;;;;;;;;;;19.81;70.71;97948.25;5139847;28;19928;-75
2023/06/15 05:39:57;;;;;;;;;;;;;;;19.42;74.43;97943.06;5142918;28;19974;-75
2023/06/15 05:42:25;;;;;;;;;;;;;;;19.60;74.85;97951.97;5143324;28;20002;-76
2023/06/15 05:44:53;;;;;;;;;;;;;;;19.40;76.40;97956.91;5138364;28;19958;-76
2023/06/15 05:47:20;;;;;;;;;;;;;;;19.67;74.05;97949.56;5143045;28;19923;-76
2023/06/15 05:49:46;;;;;;;;;;;;;;;19.11;79.42;97936.97;5142614;28;19980;-75
2023/06/15 05:52:14;;;;;;;;;;;;;;;18.75;83.92;97948.06;5142967;28;20360;-75
2023/06/15 05:54:41;;;;;;;;;;;;;;;19.39;78.13;97944.50;5142720;28;19983;-76
2023/06/15 05:57:07;;;;;;;;;;;;;;;19.96;74.03;97946.94;5139464;28;20011;-75
2023/06/15 05:59:33;;;;;;;;;;;;;;;20.00;72.83;97956.03;5139551;28;19923;-75
2023/06/15 06:02:01;;;;;;;;;;;;;;;20.32;70.67;97952.00;5124197;28;19927;-76
2023/06/15 06:04:28;;;;;;;;;;;;;;;20.37;70.75;97952.59;5143147;28;19929;-75
2023/06/15 06:06:54;;;;;;;;;;;;;;;20.64;69.41;97953.28;5140945;28;20605;-74
2023/06/15 06:09:21;;;;;;;;;;;;;;;20.61;69.83;97945.81;5139293;28;19970;-76
2023/06/15 06:11:47;;;;;;;;;;;;;;;21.01;68.19;97949.72;5140778;28;19927;-75
2023/06/15 06:14:14;;;;;;;;;;;;;;;21.29;66.61;97942.66;5142950;28;19923;-75
2023/06/15 06:16:40;;;;;;;;;;;;;;;21.41;66.25;97959.06;5142456;28;19923;-75
2023/06/15 06:19:08;;;;;;;;;;;;;;;21.65;65.30;97949.41;5139133;28;19919;-75
2023/06/15 06:21:35;;;;;;;;;;;;;;;21.88;64.00;97959.59;5139822;28;19955;-76
2023/06/15 06:24:02;;;;;;;;;;;;;;;22.16;62.95;97959.00;5143028;28;19927;-75
2023/06/15 06:26:29;;;;;;;;;;;;;;;22.29;62.29;97958.69;5142657;28;19919;-76
2023/06/15 06:28:55;;;;;;;;;;;;;;;22.36;62.31;97952.69;5140402;28;19966;-76
2023/06/15 06:31:22;;;;;;;;;;;;;;;22.42;61.84;97952.13;5138962;28;19979;-76
2023/06/15 06:33:48;;;;;;;;;;;;;;;22.60;61.25;97948.06;5140624;28;19924;-75
2023/06/15 06:36:16;;;;;;;;;;;;;;;22.67;61.05;97952.16;5142495;28;19923;-75
2023/06/15 06:38:42;;;;;;;;;;;;;;;22.75;61.12;97954.78;5142019;28;19930;-76
2023/06/15 06:41:10;;;;;;;;;;;;;;;22.54;61.45;97949.41;5139633;28;19970;-75
2023/06/15 06:43:36;;;;;;;;;;;;;;;22.59;61.43;97954.63;5139567;28;19932;-76
2023/06/15 06:46:03;;;;;;;;;;;;;;;22.61;61.22;97954.28;5146097;27;19983;-75
2023/06/15 06:48:29;;;;;;;;;;;;;;;22.77;60.98;97951.72;5146580;27;19920;-75
2023/06/15 06:50:55;;;;;;;;;;;;;;;22.75;61.14;97949.31;5143800;27;19977;-76
2023/06/15 06:53:23;;;;;;;;;;;;;;;22.58;61.85;97955.78;5143008;27;19927;-75
2023/06/15 06:55:49;;;;;;;;;;;;;;;22.61;61.76;97954.28;5144254;27;19924;-76
2023/06/15 06:58:18;;;;;;;;;;;;;;;22.60;61.42;97953.50;5146330;27;19946;-75
2023/06/15 07:00:45;;;;;;;;;;;;;;;22.58;61.80;97950.34;5145148;27;19987;-75
2023/06/15 07:03:11;;;;;;;;;;;;;;;22.93;60.60;97955.34;5143071;27;19966;-75
2023/06/15 07:05:38;;;;;;;;;;;;;;;22.71;60.96;97950.38;5147417;27;19927;-75
2023/06/15 07:08:04;;;;;;;;;;;;;;;23.00;60.59;97947.38;5140708;27;19957;-77
2023/06/15 07:10:32;;;;;;;;;;;;;;;23.25;59.96;97948.91;5148993;27;19955;-76
2023/06/15 07:12:58;;;;;;;;;;;;;;;23.10;59.59;97949.63;5151502;27;19963;-76
2023/06/15 07:15:27;;;;;;;;;;;;;;;23.28;59.67;97948.22;5152458;27;19911;-75
2023/06/15 07:17:53;;;;;;;;;;;;;;;23.44;59.38;97938.22;5150336;27;19911;-76
2023/06/15 07:20:20;;;;;;;;;;;;;;;23.76;58.32;97938.31;5153552;27;19959;-75
2023/06/15 07:22:46;;;;;;;;;;;;;;;23.74;58.30;97941.38;5151437;27;19914;-75
2023/06/15 07:25:12;;;;;;;;;;;;;;;23.92;57.71;97931.75;5148319;27;19912;-75
2023/06/15 07:27:40;;;;;;;;;;;;;;;23.37;57.48;97932.53;5145539;27;19949;-76
2023/06/15 07:30:07;;;;;;;;;;;;;;;23.32;58.23;97926.53;5147335;27;19995;-76
2023/06/15 07:32:33;;;;;;;;;;;;;;;23.48;56.92;97933.69;5145490;27;19930;-75
2023/06/15 07:35:00;;;;;;;;;;;;;;;23.79;57.26;97934.91;5142206;27;19962;-75
2023/06/15 07:37:26;;;;;;;;;;;;;;;24.04;55.76;97934.44;5143536;27;19923;-76
2023/06/15 07:39:52;;;;;;;;;;;;;;;24.18;55.62;97932.09;5142573;27;19919;-77
2023/06/15 07:42:19;;;;;;;;;;;;;;;23.84;54.86;97923.72;5123092;28;19953;-75
2023/06/15 07:44:46;;;;;;;;;;;;;;;23.56;50.93;97921.03;5142235;27;19924;-75
2023/06/15 07:47:13;;;;;;;;;;;;;;;23.42;50.73;97923.34;5144681;27;19973;-75
2023/06/15 07:49:39;;;;;;;;;;;;;;;23.67;53.49;97924.06;5144886;27;19923;-75
2023/06/15 07:52:06;;;;;;;;;;;;;;;24.02;52.74;97923.06;5144640;27;19962;-75
2023/06/15 07:54:33;;;;;;;;;;;;;;;23.53;50.68;97919.78;5144850;27;19951;-75
2023/06/15 07:56:59;;;;;;;;;;;;;;;23.44;50.49;97916.41;5142003;27;19962;-75
2023/06/15 07:59:26;;;;;;;;;;;;;;;23.28;50.47;97915.53;5141273;27;19928;-74
2023/06/15 08:01:53;;;;;;;;;;;;;;;23.74;49.42;97913.34;5143072;27;19931;-76
2023/06/15 08:04:20;;;;;;;;;;;;;;;24.17;48.73;97926.97;5144914;27;19983;-75
2023/06/15 08:06:46;;;;;;;;;;;;;;;23.54;47.73;97915.94;5143881;27;19923;-75
2023/06/15 08:09:13;;;;;;;;;;;;;;;23.29;47.96;97919.84;5141182;27;19923;-75
2023/06/15 08:11:40;;;;;;;;;;;;;;;23.14;49.09;97934.19;5141279;27;20018;-76
2023/06/15 08:14:06;;;;;;;;;;;;;;;23.99;49.36;97921.03;5144529;27;19930;-76
2023/06/15 08:16:33;;;;;;;;;;;;;;;24.34;48.88;97923.91;5144625;27;19951;-75
2023/06/15 08:19:01;;;;;;;;;;;;;;;24.12;48.28;97919.06;5141576;27;19936;-76
2023/06/15 08:21:27;;;;;;;;;;;;;;;24.06;47.20;97920.44;5140510;27;19966;-76
2023/06/15 08:23:53;;;;;;;;;;;;;;;24.06;48.11;97918.50;5142887;27;19931;-76
2023/06/15 08:26:20;;;;;;;;;;;;;;;23.67;47.56;97924.06;5144120;27;19954;-75
2023/06/15 08:28:46;;;;;;;;;;;;;;;23.36;47.55;97924.72;5143236;27;19930;-75
2023/06/15 08:31:12;;;;;;;;;;;;;;;23.45;47.60;97918.00;5140481;27;19955;-75
2023/06/15 08:33:39;;;;;;;;;;;;;;;23.98;48.28;97919.47;5140492;27;20007;-76
2023/06/15 08:36:07;;;;;;;;;;;;;;;23.62;47.68;97920.44;5144607;27;19924;-76
2023/06/15 08:38:34;;;;;;;;;;;;;;;23.82;47.22;97923.31;5144173;27;19923;-75
2023/06/15 08:41:00;;;;;;;;;;;;;;;24.35;46.87;97917.31;5122760;28;19930;-75
2023/06/15 08:43:28;;;;;;;;;;;;;;;24.31;46.79;97918.38;5140704;27;19955;-76
2023/06/15 08:45:57;;;;;;;;;;;;;;;24.79;45.63;97915.22;5142806;27;19920;-76
2023/06/15 08:48:23;;;;;;;;;;;;;;;24.56;44.30;97912.38;5144146;27;19935;-76
2023/06/15 08:50:50;;;;;;;;;;;;;;;24.20;46.25;97923.56;5142324;27;19985;-76
2023/06/15 08:53:18;;;;;;;;;;;;;;;24.71;46.27;97911.56;5140525;27;19949;-75
2023/06/15 08:55:45;;;;;;;;;;;;;;;25.13;45.95;97909.00;5141350;27;20327;-75
2023/06/15 08:58:11;;;;;;;;;;;;;;;25.21;44.86;97912.69;5143924;27;19923;-76
2023/06/15 09:00:37;;;;;;;;;;;;;;;25.02;45.22;97909.94;5143767;27;19954;-75
2023/06/15 09:03:05;;;;;;;;;;;;;;;24.89;46.01;97913.91;5140072;27;19924;-75
2023/06/15 09:05:32;;;;;;;;;;;;;;;24.84;45.97;97911.47;5140117;27;19939;-75
2023/06/15 09:07:59;;;;;;;;;;;;;;;24.47;44.88;97921.88;5142193;27;19991;-76
2023/06/15 09:10:27;;;;;;;;;;;;;;;23.94;44.55;97915.84;5143525;27;19978;-76
2023/06/15 09:12:54;;;;;;;;;;;;;;;24.46;46.25;97912.91;5141857;27;19975;-76
2023/06/15 09:15:21;;;;;;;;;;;;;;;24.57;46.03;97919.41;5140286;27;19930;-77
2023/06/15 09:17:50;;;;;;;;;;;;;;;24.20;44.94;97920.84;5141614;27;20394;-76
2023/06/15 09:20:17;;;;;;;;;;;;;;;24.71;44.99;97919.75;5143557;27;19959;-76
2023/06/15 09:22:45;;;;;;;;;;;;;;;25.18;44.66;97916.13;5142794;27;19982;-76
2023/06/15 09:25:12;;;;;;;;;;;;;;;25.20;43.37;97908.38;5139952;27;19924;-77
2023/06/15 09:27:40;;;;;;;;;;;;;;;24.87;43.80;97905.31;5140064;27;20150;-76
2023/06/15 09:30:07;;;;;;;;;;;;;;;24.38;42.18;97919.34;5131775;28;19970;-76
2023/06/15 09:32:34;;;;;;;;;;;;;;;24.35;43.23;97911.88;5139872;28;19924;-76
2023/06/15 09:35:01;;;;;;;;;;;;;;;24.50;43.12;97916.53;5142913;28;19966;-76
2023/06/15 09:37:28;;;;;;;;;;;;;;;24.94;43.26;97909.00;5143380;28;19941;-76
2023/06/15 09:39:55;;;;;;;;;;;;;;;24.95;42.71;97905.09;5141546;28;19923;-76
2023/06/15 09:42:24;;;;;;;;;;;;;;;25.32;43.61;97908.22;5140212;28;19979;-77
2023/06/15 09:44:54;;;;;;;;;;;;;;;24.84;42.33;97912.28;5141214;28;19986;-76
2023/06/15 09:47:21;;;;;;;;;;;;;;;24.83;43.27;97909.88;5143667;28;19930;-76
2023/06/15 09:49:49;;;;;;;;;;;;;;;24.93;43.48;97904.66;5143607;28;19944;-76
2023/06/15 09:52:15;;;;;;;;;;;;;;;25.54;43.52;97910.28;5144346;28;19953;-76
2023/06/15 09:54:43;;;;;;;;;;;;;;;25.86;43.14;97913.63;5144051;28;19945;-77
2023/06/15 09:57:10;;;;;;;;;;;;;;;25.97;41.05;97900.94;5140691;28;19935;-76
2023/06/15 09:59:37;;;;;;;;;;;;;;;25.51;41.64;97911.00;5140573;28;19923;-76
2023/06/15 10:02:08;;;;;;;;;;;;;;;25.83;41.70;97910.81;5143959;28;19966;-76
2023/06/15 10:04:36;;;;;;;;;;;;;;;25.44;41.61;97908.09;5143890;28;19919;-76
2023/06/15 10:07:03;;;;;;;;;;;;;;;25.21;42.15;97899.81;5141518;28;19924;-76
2023/06/15 10:09:32;;;;;;;;;;;;;;;24.93;42.36;97892.94;5140987;28;19973;-77
2023/06/15 10:12:03;;;;;;;;;;;;;;;25.51;42.62;97905.53;5142788;28;19924;-76
2023/06/15 10:14:33;;;;;;;;;;;;;;;25.95;41.77;97896.97;5143446;28;19963;-76
2023/06/15 10:17:02;;;;;;;;;;;;;;;26.13;41.30;97906.28;5140842;28;20031;-77
2023/06/15 10:19:30;;;;;;;;;;;;;;;26.18;41.00;97898.59;5140635;27;19931;-76
2023/06/15 10:21:57;;;;;;;;;;;;;;;25.73;41.14;97899.31;5146282;27;19924;-76
2023/06/15 10:24:25;;;;;;;;;;;;;;;25.90;40.93;97900.81;5128982;27;20636;-76
2023/06/15 10:26:51;;;;;;;;;;;;;;;26.03;41.13;97895.94;5145403;27;19931;-76
2023/06/15 10:29:21;;;;;;;;;;;;;;;25.77;40.50;97896.66;5144013;27;19991;-76
2023/06/15 10:31:50;;;;;;;;;;;;;;;25.96;41.01;97896.63;5145997;27;20024;-76
2023/06/15 10:34:19;;;;;;;;;;;;;;;26.09;39.92;97894.50;5148905;27;19974;-76
2023/06/15 10:36:50;;;;;;;;;;;;;;;25.68;40.29;97894.16;5147438;27;19924;-77
2023/06/15 10:39:20;;;;;;;;;;;;;;;25.66;41.34;97888.25;5148432;27;19912;-77
2023/06/15 10:41:46;;;;;;;;;;;;;;;25.66;40.84;97893.72;5146507;27;19923;-85
2023/06/15 10:44:14;;;;;;;;;;;;;;;25.45;40.83;97898.72;5153186;27;19912;-81
2023/06/15 10:46:41;;;;;;;;;;;;;;;25.13;40.35;97891.81;5132962;27;19976;-80
2023/06/15 10:49:08;;;;;;;;;;;;;;;25.55;42.81;97889.19;5150050;27;19911;-81
2023/06/15 10:51:35;;;;;;;;;;;;;;;25.25;41.21;97883.50;5149446;27;19918;-80
2023/06/15 10:54:05;;;;;;;;;;;;;;;25.10;41.32;97885.13;5151071;27;19916;-81
2023/06/15 10:56:31;;;;;;;;;;;;;;;24.80;40.70;97883.25;5133524;27;19934;-78
2023/06/15 10:58:58;;;;;;;;;;;;;;;25.34;42.27;97886.81;5146811;27;19954;-79
2023/06/15 11:01:25;;;;;;;;;;;;;;;25.76;42.08;97887.66;5143666;27;19954;-79
2023/06/15 11:03:53;;;;;;;;;;;;;;;26.06;41.43;97890.53;5151937;27;19928;-76
2023/06/15 11:06:21;;;;;;;;;;;;;;;25.91;40.29;97883.22;5143937;27;19954;-84
2023/06/15 11:08:48;;;;;;;;;;;;;;;25.34;38.85;97892.28;5144877;27;20577;-82
2023/06/15 11:11:16;;;;;;;;;;;;;;;25.22;40.57;97890.44;5129359;27;19955;-81
2023/06/15 11:13:56;;;;;;;;;;;;;;;25.71;41.29;97881.69;5146881;27;19923;-75
2023/06/15 11:16:24;;;;;;;;;;;;;;;25.85;41.03;97879.22;5147199;27;19912;-79
2023/06/15 11:18:57;;;;;;;;;;;;;;;25.89;40.32;97874.59;5151162;27;19927;-83
2023/06/15 11:21:28;;;;;;;;;;;;;;;25.69;40.95;97873.84;5136769;28;19930;-80
2023/06/15 11:23:57;;;;;;;;;;;;;;;25.74;38.16;97879.03;5151158;27;19908;-79
2023/06/15 11:26:27;;;;;;;;;;;;;;;25.48;39.45;97870.66;5134712;27;19918;-78
2023/06/15 11:28:57;;;;;;;;;;;;;;;25.73;39.49;97882.91;5150708;27;19911;-77
2023/06/15 11:31:23;;;;;;;;;;;;;;;25.64;38.06;97884.28;5147713;27;20001;-78
2023/06/15 11:33:50;;;;;;;;;;;;;;;25.54;39.43;97880.19;5149461;27;19924;-79
2023/06/15 11:36:16;;;;;;;;;;;;;;;25.65;39.52;97870.28;5151712;27;19919;-76
2023/06/15 11:38:43;;;;;;;;;;;;;;;25.53;37.83;97867.66;5148919;27;19955;-78
2023/06/15 11:41:11;;;;;;;;;;;;;;;25.47;38.33;97869.09;5144680;27;19927;-79
2023/06/15 11:43:41;;;;;;;;;;;;;;;25.52;38.22;97866.09;5143403;27;19930;-79
2023/06/15 11:46:10;;;;;;;;;;;;;;;25.24;37.69;97865.50;5135293;27;19907;-79
2023/06/15 11:48:36;;;;;;;;;;;;;;;24.93;38.63;97865.63;5142533;27;19934;-78
2023/06/15 11:51:07;;;;;;;;;;;;;;;25.66;40.01;97863.63;5150873;27;20018;-80
2023/06/15 11:53:34;;;;;;;;;;;;;;;25.85;39.50;97862.00;5143229;27;19924;-80
2023/06/15 11:56:01;;;;;;;;;;;;;;;25.64;37.75;97857.72;5145891;27;19927;-79
2023/06/15 11:58:27;;;;;;;;;;;;;;;25.51;37.92;97853.56;5146673;27;19923;-80
2023/06/15 12:00:56;;;;;;;;;;;;;;;25.62;38.29;97859.25;5144831;27;19920;-79
2023/06/15 12:03:23;;;;;;;;;;;;;;;25.60;38.03;97865.06;5142417;27;20352;-80
2023/06/15 12:05:55;;;;;;;;;;;;;;;25.67;38.70;97856.22;5126756;27;19947;-80
2023/06/15 12:08:22;;;;;;;;;;;;;;;26.02;38.14;97861.53;5148579;27;19969;-79
2023/06/15 12:10:48;;;;;;;;;;;;;;;25.93;38.33;97844.56;5146074;27;19949;-80
2023/06/15 12:13:15;;;;;;;;;;;;;;;25.66;38.26;97844.47;5143601;27;19923;-79
2023/06/15 12:15:46;;;;;;;;;;;;;;;25.89;37.83;97844.50;5144322;27;19947;-79
2023/06/15 12:18:14;;;;;;;;;;;;;;;25.69;37.66;97838.28;5147859;27;19953;-80
2023/06/15 12:20:41;;;;;;;;;;;;;;;25.54;37.23;97821.97;5146039;27;19945;-80
2023/06/15 12:23:07;;;;;;;;;;;;;;;25.35;37.79;97830.97;5142371;27;19919;-80
2023/06/15 12:25:41;;;;;;;;;;;;;;;25.51;37.08;97831.69;5123757;28;19919;-80
2023/06/15 12:28:13;;;;;;;;;;;;;;;25.44;37.42;97826.06;5112315;28;19931;-79
2023/06/15 12:30:40;;;;;;;;;;;;;;;25.33;37.03;97830.53;5138548;27;19924;-78
2023/06/15 12:33:06;;;;;;;;;;;;;;;25.30;37.16;97831.25;5147476;27;19923;-80
2023/06/15 12:35:37;;;;;;;;;;;;;;;25.15;37.45;97818.47;5145756;27;19938;-79
2023/06/15 12:38:06;;;;;;;;;;;;;;;25.46;37.89;97818.31;5142474;27;19923;-79
2023/06/15 12:40:33;;;;;;;;;;;;;;;25.39;36.44;97814.63;5141866;27;19955;-80
2023/06/15 12:43:00;;;;;;;;;;;;;;;25.00;36.73;97819.34;5143713;27;19931;-81
2023/06/15 12:45:26;;;;;;;;;;;;;;;25.12;37.66;97819.19;5145620;27;19945;-80
2023/06/15 12:47:53;;;;;;;;;;;;;;;25.29;36.82;97818.75;5148480;27;19961;-80